| time (UTC) | temp C | wind direction | speed KPH | gust KPH | rain 1hr cm | rain 24hr cm | rain mn cm | humidity % | barometer mb |
| 20260507110039 | 11 | 282 | 3.2 | 11.3 | 0.00 | 0.00 | 0.00 | 76 | 1020.4 |
| 20260507104539 | 12 | 43 | 1.6 | 6.4 | 0.00 | 0.00 | 0.00 | 76 | 1020.5 |
| 20260507103036 | 12 | 346 | 1.6 | 8.0 | 0.00 | 0.00 | 0.00 | 77 | 1020.6 |
| 20260507101543 | 12 | 260 | 3.2 | 9.7 | 0.00 | 0.00 | 0.00 | 77 | 1020.7 |
| 20260507100035 | 12 | 38 | 0.0 | 6.4 | 0.00 | 0.00 | 0.00 | 77 | 1020.8 |
| 20260507094531 | 12 | 321 | 3.2 | 12.9 | 0.00 | 0.00 | 0.00 | 77 | 1020.8 |
| 20260507093037 | 12 | 333 | 3.2 | 12.9 | 0.00 | 0.00 | 0.00 | 76 | 1020.9 |
| 20260507091528 | 12 | 325 | 3.2 | 9.7 | 0.00 | 0.00 | 0.00 | 76 | 1021.0 |
| 20260507090031 | 12 | 329 | 8.0 | 12.9 | 0.00 | 0.00 | 0.00 | 75 | 1021.0 |
| 20260507084525 | 12 | 338 | 6.4 | 16.1 | 0.00 | 0.00 | 0.00 | 75 | 1021.0 |
| 20260507083035 | 12 | 319 | 3.2 | 8.0 | 0.00 | 0.00 | 0.00 | 76 | 1021.0 |
| 20260507081527 | 12 | 294 | 4.8 | 14.5 | 0.00 | 0.00 | 0.00 | 76 | 1021.1 |
| 20260507080020 | 12 | 323 | 9.7 | 16.1 | 0.00 | 0.00 | 0.00 | 76 | 1021.1 |
| 20260507074526 | 12 | 2 | 3.2 | 11.3 | 0.00 | 0.00 | 0.00 | 77 | 1021.1 |
| 20260507073017 | 12 | 314 | 4.8 | 8.0 | 0.00 | 0.00 | 0.00 | 77 | 1021.0 |
| 20260507071515 | 12 | 310 | 8.0 | 16.1 | 0.00 | 0.00 | 0.00 | 77 | 1020.9 |
| 20260507070014 | 12 | 308 | 3.2 | 14.5 | 0.00 | 0.00 | 0.00 | 77 | 1020.8 |
| 20260507064511 | 12 | 50 | 8.0 | 17.7 | 0.00 | 0.00 | 0.00 | 76 | 1020.9 |
| 20260507063008 | 13 | 321 | 4.8 | 11.3 | 0.00 | 0.00 | 0.00 | 77 | 1020.9 |
| 20260507061507 | 13 | 13 | 1.6 | 16.1 | 0.00 | 0.00 | 0.00 | 78 | 1021.0 |
| 20260507060005 | 13 | 333 | 0.0 | 14.5 | 0.00 | 0.00 | 0.00 | 78 | 1021.0 |
| 20260507054502 | 13 | 25 | 3.2 | 11.3 | 0.00 | 0.00 | 0.00 | 77 | 1021.0 |
| 20260507053001 | 13 | 248 | 6.4 | 14.5 | 0.00 | 0.00 | 0.00 | 77 | 1021.0 |
| 20260507051601 | 13 | 354 | 1.6 | 14.5 | 0.00 | 0.00 | 0.00 | 76 | 1020.9 |
| 20260507050100 | 13 | 273 | 4.8 | 16.1 | 0.00 | 0.00 | 0.00 | 76 | 1021.0 |
| 20260507044616 | 13 | 46 | 3.2 | 16.1 | 0.00 | 0.00 | 0.00 | 75 | 1020.9 |
| 20260507043059 | 14 | 314 | 6.4 | 20.9 | 0.00 | 0.00 | 0.00 | 75 | 1020.9 |
| 20260507041602 | 14 | 2 | 1.6 | 19.3 | 0.00 | 0.00 | 0.00 | 74 | 1020.7 |
| 20260507040104 | 15 | 315 | 4.8 | 22.5 | 0.00 | 0.00 | 0.00 | 73 | 1020.6 |
| 20260507034558 | 15 | 6 | 3.2 | 8.0 | 0.00 | 0.00 | 0.00 | 73 | 1020.3 |
| 20260507033056 | 15 | 315 | 4.8 | 12.9 | 0.00 | 0.00 | 0.00 | 73 | 1020.2 |
| 20260507031557 | 16 | 342 | 4.8 | 16.1 | 0.00 | 0.00 | 0.00 | 72 | 1019.9 |
| 20260507030055 | 16 | 313 | 4.8 | 14.5 | 0.00 | 0.00 | 0.00 | 72 | 1019.7 |
| 20260507024551 | 16 | 287 | 4.8 | 16.1 | 0.00 | 0.00 | 0.00 | 71 | 1019.5 |
| 20260507023052 | 17 | 314 | 6.4 | 16.1 | 0.00 | 0.00 | 0.00 | 70 | 1019.4 |
| 20260507021550 | 17 | 73 | 1.6 | 11.3 | 0.00 | 0.00 | 0.00 | 69 | 1019.5 |
| 20260507020100 | 17 | 320 | 9.7 | 19.3 | 0.00 | 0.00 | 0.00 | 69 | 1019.4 |
| 20260507014601 | 17 | 10 | 4.8 | 20.9 | 0.00 | 0.00 | 0.00 | 68 | 1019.5 |
| 20260507013048 | 18 | 356 | 8.0 | 19.3 | 0.00 | 0.00 | 0.00 | 67 | 1019.6 |
| 20260507011559 | 18 | 281 | 8.0 | 19.3 | 0.00 | 0.00 | 0.00 | 65 | 1019.5 |
| 20260507010048 | 19 | 289 | 8.0 | 16.1 | 0.00 | 0.00 | 0.00 | 64 | 1019.5 |
| 20260507004546 | 20 | 291 | 3.2 | 14.5 | 0.00 | 0.00 | 0.00 | 62 | 1019.4 |
| 20260507003046 | 20 | 316 | 6.4 | 16.1 | 0.00 | 0.00 | 0.00 | 63 | 1019.3 |
| 20260507001559 | 21 | 131 | 3.2 | 16.1 | 0.00 | 0.00 | 0.00 | 64 | 1019.3 |
| 20260507000048 | 21 | 303 | 3.2 | 9.7 | 0.00 | 0.00 | 0.00 | 62 | 1019.3 |
| 20260506234546 | 22 | 322 | 0.0 | 6.4 | 0.00 | 0.00 | 0.00 | 60 | 1019.2 |
| 20260506233045 | 22 | 118 | 1.6 | 4.8 | 0.00 | 0.00 | 0.00 | 60 | 1019.1 |
| 20260506231543 | 22 | 111 | 4.8 | 8.0 | 0.00 | 0.00 | 0.00 | 60 | 1019.2 |
| 20260506230047 | 22 | 331 | 1.6 | 6.4 | 0.00 | 0.00 | 0.00 | 60 | 1019.4 |
| 20260506224541 | 22 | 89 | 1.6 | 8.0 | 0.00 | 0.00 | 0.00 | 61 | 1019.6 |
| 20260506223038 | 21 | 345 | 3.2 | 8.0 | 0.00 | 0.00 | 0.00 | 62 | 1019.7 |
| 20260506221537 | 21 | 1 | 0.0 | 6.4 | 0.00 | 0.00 | 0.00 | 62 | 1019.8 |
| 20260506220041 | 21 | 77 | 0.0 | 4.8 | 0.00 | 0.00 | 0.00 | 63 | 1019.9 |
| 20260506214533 | 21 | 72 | 3.2 | 12.9 | 0.00 | 0.00 | 0.00 | 65 | 1019.8 |
| 20260506213028 | 20 | 107 | 3.2 | 6.4 | 0.00 | 0.00 | 0.00 | 68 | 1019.9 |
| 20260506211527 | 19 | 2 | 1.6 | 6.4 | 0.00 | 0.00 | 0.00 | 68 | 1020.1 |
| 20260506210024 | 19 | 44 | 1.6 | 6.4 | 0.00 | 0.00 | 0.00 | 70 | 1020.3 |
| 20260506204522 | 18 | 84 | 4.8 | 9.7 | 0.00 | 0.00 | 0.00 | 71 | 1020.2 |
| 20260506203020 | 18 | 131 | 1.6 | 6.4 | 0.00 | 0.00 | 0.00 | 72 | 1020.3 |
| 20260506201521 | 18 | 349 | 1.6 | 8.0 | 0.00 | 0.00 | 0.00 | 73 | 1020.3 |
| 20260506200018 | 17 | 323 | 0.0 | 6.4 | 0.00 | 0.00 | 0.00 | 73 | 1020.4 |
| 20260506194513 | 17 | 276 | 1.6 | 8.0 | 0.00 | 0.00 | 0.00 | 74 | 1020.6 |
| 20260506193011 | 17 | 300 | 1.6 | 4.8 | 0.00 | 0.00 | 0.00 | 74 | 1020.7 |
| 20260506191515 | 17 | 274 | 1.6 | 8.0 | 0.00 | 0.00 | 0.00 | 73 | 1020.5 |
| 20260506190008 | 17 | 146 | 0.0 | 8.0 | 0.00 | 0.00 | 0.00 | 75 | 1020.6 |
| 20260506184505 | 16 | 94 | 3.2 | 8.0 | 0.00 | 0.00 | 0.00 | 77 | 1020.5 |
| 20260506183002 | 16 | 250 | 3.2 | 8.0 | 0.00 | 0.00 | 0.00 | 77 | 1020.4 |
| 20260506181502 | 16 | 308 | 1.6 | 6.4 | 0.00 | 0.00 | 0.00 | 78 | 1020.5 |
| 20260506180059 | 15 | 242 | 1.6 | 8.0 | 0.00 | 0.00 | 0.00 | 80 | 1020.5 |
| 20260506174608 | 15 | 304 | 1.6 | 8.0 | 0.00 | 0.00 | 0.00 | 80 | 1020.5 |
| 20260506173058 | 15 | 308 | 1.6 | 4.8 | 0.00 | 0.00 | 0.00 | 80 | 1020.4 |
| 20260506171605 | 15 | 241 | 0.0 | 4.8 | 0.00 | 0.00 | 0.00 | 80 | 1020.3 |
| 20260506170055 | 15 | 55 | 1.6 | 8.0 | 0.00 | 0.00 | 0.00 | 79 | 1020.3 |
| 20260506164558 | 15 | 316 | 3.2 | 8.0 | 0.00 | 0.00 | 0.00 | 80 | 1020.3 |
| 20260506163114 | 15 | 15 | 0.0 | 6.4 | 0.00 | 0.00 | 0.00 | 81 | 1020.4 |
| 20260506161553 | 15 | 84 | 0.0 | 4.8 | 0.00 | 0.00 | 0.00 | 82 | 1020.1 |
| 20260506160053 | 14 | 149 | 1.6 | 4.8 | 0.00 | 0.00 | 0.00 | 82 | 1019.9 |
| 20260506154554 | 13 | 129 | 3.2 | 6.4 | 0.00 | 0.00 | 0.00 | 84 | 1019.5 |
| 20260506153102 | 13 | 49 | 1.6 | 4.8 | 0.00 | 0.00 | 0.00 | 84 | 1020.1 |
| 20260506151551 | 13 | 293 | 3.2 | 11.3 | 0.00 | 0.00 | 0.00 | 83 | 1020.4 |
| 20260506150050 | 13 | 359 | 0.0 | 6.4 | 0.00 | 0.00 | 0.00 | 84 | 1020.3 |
| 20260506144547 | 13 | 6 | 0.0 | 9.7 | 0.00 | 0.00 | 0.00 | 84 | 1019.9 |
| 20260506143046 | 13 | 299 | 0.0 | 6.4 | 0.00 | 0.00 | 0.00 | 84 | 1019.8 |
| 20260506141543 | 13 | 29 | 0.0 | 3.2 | 0.00 | 0.00 | 0.00 | 85 | 1019.4 |
| 20260506140043 | 13 | 4 | 0.0 | 3.2 | 0.00 | 0.00 | 0.00 | 85 | 1019.5 |
| 20260506134542 | 13 | 75 | 0.0 | 3.2 | 0.00 | 0.00 | 0.00 | 85 | 1019.3 |
| 20260506133038 | 13 | 75 | 0.0 | 1.6 | 0.00 | 0.00 | 0.00 | 85 | 1019.2 |
| 20260506131539 | 13 | 75 | 0.0 | 3.2 | 0.00 | 0.00 | 0.00 | 85 | 1019.0 |
| 20260506130040 | 13 | 75 | 0.0 | 1.6 | 0.00 | 0.00 | 0.00 | 85 | 1018.9 |
| 20260506124538 | 13 | 75 | 0.0 | 4.8 | 0.00 | 0.00 | 0.00 | 85 | 1018.8 |
| 20260506123036 | 13 | 48 | 0.0 | 3.2 | 0.00 | 0.00 | 0.00 | 85 | 1018.8 |
| 20260506121543 | 13 | 333 | 1.6 | 4.8 | 0.00 | 0.00 | 0.00 | 85 | 1018.8 |
| 20260506120037 | 13 | 225 | 1.6 | 9.7 | 0.00 | 0.00 | 0.00 | 85 | 1018.8 |
| 20260506114531 | 13 | 332 | 3.2 | 12.9 | 0.00 | 0.00 | 0.00 | 84 | 1018.5 |
| 20260506113029 | 13 | 285 | 3.2 | 8.0 | 0.00 | 0.00 | 0.00 | 84 | 1018.4 |
| 20260506111530 | 13 | 356 | 1.6 | 8.0 | 0.00 | 0.00 | 0.00 | 83 | 1018.3 |